Time,TemperatureF,DewpointF,PressureIn,WindDirection,WindDirectionDegrees,WindSpeedMPH,WindSpeedGustMPH,Humidity,HourlyPrecipIn,Conditions,Clouds,dailyrainin,SoftwareType,DateUTC
2014-02-08 00:00:00,14.9,9.0,30.25,NW,326,0.0,3.0,77,0.00,,,0.05,VWS V14.01,2014-02-08 05:00:00,
2014-02-08 00:01:00,14.9,9.0,30.25,NW,326,0.0,0.0,77,0.00,,,0.00,VWS V14.01,2014-02-08 05:01:00,
2014-02-08 00:02:00,15.0,9.1,30.25,NW,326,0.0,0.0,77,0.00,,,0.00,VWS V14.01,2014-02-08 05:02:00,
2014-02-08 00:03:00,15.0,9.1,30.26,NW,326,0.0,0.0,77,0.00,,,0.00,VWS V14.01,2014-02-08 05:03:00,
2014-02-08 00:08:00,14.9,9.0,30.25,NW,326,0.0,0.0,77,0.00,,,0.00,VWS V14.01,2014-02-08 05:08:00,
2014-02-08 00:13:00,14.8,8.9,30.25,NW,326,0.0,0.0,77,0.00,,,0.00,VWS V14.01,2014-02-08 05:13:00,
2014-02-08 00:18:00,14.7,8.8,30.25,NW,326,0.0,1.0,77,0.00,,,0.00,VWS V14.01,2014-02-08 05:18:00,
2014-02-08 00:23:00,15.0,9.1,30.25,NNE,23,0.0,3.0,77,0.00,,,0.00,VWS V14.01,2014-02-08 05:23:00,
2014-02-08 00:28:00,15.0,8.8,30.25,NNE,23,0.0,3.0,76,0.00,,,0.00,VWS V14.01,2014-02-08 05:28:00,
2014-02-08 00:33:00,14.8,8.6,30.26,NNE,23,0.0,2.0,76,0.00,,,0.00,VWS V14.01,2014-02-08 05:33:00,
2014-02-08 00:38:00,14.6,8.4,30.25,NNE,23,2.0,3.0,76,0.00,,,0.00,VWS V14.01,2014-02-08 05:38:00,
2014-02-08 00:43:00,14.3,8.1,30.25,NNE,23,2.0,3.0,76,0.00,,,0.00,VWS V14.01,2014-02-08 05:43:00,
2014-02-08 00:48:00,14.0,8.1,30.25,NNE,23,0.0,3.0,77,0.00,,,0.00,VWS V14.01,2014-02-08 05:48:00,
2014-02-08 00:53:00,13.9,8.0,30.25,NNE,23,2.0,3.0,77,0.00,,,0.00,VWS V14.01,2014-02-08 05:53:00,
2014-02-08 00:59:00,13.8,8.2,30.25,NNE,23,2.0,3.0,78,0.00,,,0.00,VWS V14.01,2014-02-08 05:59:00,
2014-02-08 01:00:00,13.7,8.1,30.25,NNE,23,1.0,3.0,78,0.00,,,0.00,VWS V14.01,2014-02-08 06:00:00,
2014-02-08 01:05:00,13.3,7.7,30.25,NNE,23,2.0,3.0,78,0.00,,,0.00,VWS V14.01,2014-02-08 06:05:00,
2014-02-08 01:10:00,12.7,7.4,30.25,NNE,23,1.0,3.0,79,0.00,,,0.00,VWS V14.01,2014-02-08 06:10:00,
2014-02-08 01:15:00,12.3,7.3,30.26,NNE,23,1.0,3.0,80,0.00,,,0.00,VWS V14.01,2014-02-08 06:15:00,
2014-02-08 01:20:00,12.1,7.1,30.26,NNE,23,2.0,3.0,80,0.00,,,0.00,VWS V14.01,2014-02-08 06:20:00,
2014-02-08 01:25:00,11.7,7.0,30.26,NNE,23,2.0,3.0,81,0.00,,,0.00,VWS V14.01,2014-02-08 06:25:00,
2014-02-08 01:30:00,11.5,7.1,30.26,NNE,23,2.0,3.0,82,0.00,,,0.00,VWS V14.01,2014-02-08 06:30:00,
2014-02-08 01:35:00,11.4,7.0,30.26,North,349,3.0,3.0,82,0.00,,,0.00,VWS V14.01,2014-02-08 06:35:00,
2014-02-08 01:40:00,11.3,6.9,30.26,NE,40,1.0,4.0,82,0.00,,,0.00,VWS V14.01,2014-02-08 06:40:00,
2014-02-08 01:45:00,11.1,6.7,30.26,NE,40,2.0,4.0,82,0.00,,,0.00,VWS V14.01,2014-02-08 06:45:00,
2014-02-08 01:50:00,11.0,6.9,30.26,NE,40,1.0,4.0,83,0.00,,,0.00,VWS V14.01,2014-02-08 06:50:00,
2014-02-08 01:55:00,10.7,6.3,30.26,NE,40,2.0,4.0,82,0.00,,,0.00,VWS V14.01,2014-02-08 06:55:00,
2014-02-08 02:00:00,10.4,6.3,30.27,NE,40,2.0,2.0,83,0.00,,,0.00,VWS V14.01,2014-02-08 07:00:00,
2014-02-08 02:05:00,9.9,5.8,30.27,NE,40,2.0,3.0,83,0.00,,,0.00,VWS V14.01,2014-02-08 07:05:00,
2014-02-08 02:11:00,9.6,5.8,30.27,NE,40,2.0,3.0,84,0.00,,,0.00,VWS V14.01,2014-02-08 07:11:00,
2014-02-08 02:16:00,9.5,5.7,30.27,NE,40,2.0,3.0,84,0.00,,,0.00,VWS V14.01,2014-02-08 07:16:00,
2014-02-08 02:21:00,9.3,5.7,30.27,NE,40,2.0,3.0,85,0.00,,,0.00,VWS V14.01,2014-02-08 07:21:00,
2014-02-08 02:26:00,9.3,5.7,30.27,NE,40,0.0,3.0,85,0.00,,,0.00,VWS V14.01,2014-02-08 07:26:00,
2014-02-08 02:31:00,9.1,5.5,30.27,NE,40,1.0,2.0,85,0.00,,,0.00,VWS V14.01,2014-02-08 07:31:00,
2014-02-08 02:36:00,8.9,5.3,30.27,NE,40,1.0,2.0,85,0.00,,,0.00,VWS V14.01,2014-02-08 07:36:00,
2014-02-08 02:41:00,8.7,5.1,30.27,NE,40,0.0,2.0,85,0.00,,,0.00,VWS V14.01,2014-02-08 07:41:00,
2014-02-08 02:46:00,8.6,5.3,30.28,NE,40,0.0,2.0,86,0.00,,,0.00,VWS V14.01,2014-02-08 07:46:00,
2014-02-08 02:51:00,8.4,4.8,30.28,NE,40,2.0,3.0,85,0.00,,,0.00,VWS V14.01,2014-02-08 07:51:00,
2014-02-08 02:56:00,8.0,4.4,30.28,NE,40,3.0,3.0,85,0.00,,,0.00,VWS V14.01,2014-02-08 07:56:00,
2014-02-08 03:01:00,7.7,4.4,30.28,NE,40,2.0,3.0,86,0.00,,,0.00,VWS V14.01,2014-02-08 08:01:00,
2014-02-08 03:06:00,7.3,4.0,30.28,NE,40,2.0,3.0,86,0.00,,,0.00,VWS V14.01,2014-02-08 08:06:00,
2014-02-08 03:11:00,7.0,3.7,30.28,NE,40,0.0,3.0,86,0.00,,,0.00,VWS V14.01,2014-02-08 08:11:00,
2014-02-08 03:16:00,6.8,3.8,30.29,NE,40,1.0,3.0,87,0.00,,,0.00,VWS V14.01,2014-02-08 08:16:00,
2014-02-08 03:21:00,6.6,3.6,30.29,NE,40,0.0,3.0,87,0.00,,,0.00,VWS V14.01,2014-02-08 08:21:00,
2014-02-08 03:26:00,6.6,3.8,30.29,NE,40,2.0,3.0,88,0.00,,,0.00,VWS V14.01,2014-02-08 08:26:00,
2014-02-08 03:32:00,6.5,3.7,30.29,NE,40,2.0,3.0,88,0.00,,,0.00,VWS V14.01,2014-02-08 08:32:00,
2014-02-08 03:37:00,6.3,3.5,30.29,NE,40,1.0,3.0,88,0.00,,,0.00,VWS V14.01,2014-02-08 08:37:00,
2014-02-08 03:42:00,6.3,3.5,30.29,NE,40,0.0,3.0,88,0.00,,,0.00,VWS V14.01,2014-02-08 08:42:00,
2014-02-08 03:47:00,6.3,3.5,30.29,NE,40,2.0,3.0,88,0.00,,,0.00,VWS V14.01,2014-02-08 08:47:00,
2014-02-08 03:52:00,6.3,3.5,30.29,NE,38,2.0,4.0,88,0.00,,,0.00,VWS V14.01,2014-02-08 08:52:00,
2014-02-08 03:57:00,6.0,3.2,30.29,NE,38,0.0,4.0,88,0.00,,,0.00,VWS V14.01,2014-02-08 08:57:00,
2014-02-08 04:02:00,5.7,2.9,30.29,NE,38,2.0,3.0,88,0.00,,,0.00,VWS V14.01,2014-02-08 09:02:00,
2014-02-08 04:07:00,5.7,2.9,30.29,NE,38,1.0,3.0,88,0.00,,,0.00,VWS V14.01,2014-02-08 09:07:00,
2014-02-08 04:12:00,5.5,2.7,30.30,NE,38,1.0,3.0,88,0.00,,,0.00,VWS V14.01,2014-02-08 09:12:00,
2014-02-08 04:17:00,5.3,2.5,30.29,NE,38,2.0,3.0,88,0.00,,,0.00,VWS V14.01,2014-02-08 09:17:00,
2014-02-08 04:22:00,5.2,2.4,30.30,NE,38,1.0,3.0,88,0.00,,,0.00,VWS V14.01,2014-02-08 09:22:00,
2014-02-08 04:27:00,5.0,2.2,30.30,NE,38,2.0,3.0,88,0.00,,,0.00,VWS V14.01,2014-02-08 09:27:00,
2014-02-08 04:32:00,4.9,2.1,30.30,NE,38,2.0,2.0,88,0.00,,,0.00,VWS V14.01,2014-02-08 09:32:00,
2014-02-08 04:37:00,4.8,2.0,30.30,NE,38,2.0,3.0,88,0.00,,,0.00,VWS V14.01,2014-02-08 09:37:00,
2014-02-08 04:42:00,4.7,1.9,30.30,NE,38,1.0,3.0,88,0.00,,,0.00,VWS V14.01,2014-02-08 09:42:00,
2014-02-08 04:47:00,4.5,1.7,30.30,NE,38,3.0,3.0,88,0.00,,,0.00,VWS V14.01,2014-02-08 09:47:00,
2014-02-08 04:53:00,4.5,1.7,30.31,NE,38,0.0,3.0,88,0.00,,,0.00,VWS V14.01,2014-02-08 09:53:00,
2014-02-08 04:58:00,4.5,2.0,30.31,NE,38,2.0,3.0,89,0.00,,,0.00,VWS V14.01,2014-02-08 09:58:00,
2014-02-08 05:03:00,4.5,2.0,30.31,NE,38,1.0,3.0,89,0.00,,,0.00,VWS V14.01,2014-02-08 10:03:00,
2014-02-08 05:08:00,4.4,1.6,30.31,NE,49,1.0,3.0,88,0.00,,,0.00,VWS V14.01,2014-02-08 10:08:00,
2014-02-08 05:13:00,4.1,1.3,30.31,NE,49,3.0,3.0,88,0.00,,,0.00,VWS V14.01,2014-02-08 10:13:00,
2014-02-08 05:18:00,3.8,1.0,30.31,NE,49,0.0,3.0,88,0.00,,,0.00,VWS V14.01,2014-02-08 10:18:00,
2014-02-08 05:23:00,3.7,0.9,30.30,NE,49,2.0,3.0,88,0.00,,,0.00,VWS V14.01,2014-02-08 10:23:00,
2014-02-08 05:28:00,3.6,0.9,30.30,NE,49,2.0,3.0,88,0.00,,,0.00,VWS V14.01,2014-02-08 10:28:00,
2014-02-08 05:33:00,3.3,0.6,30.30,NE,49,2.0,3.0,88,0.00,,,0.00,VWS V14.01,2014-02-08 10:33:00,
2014-02-08 05:38:00,3.0,0.3,30.30,NE,49,2.0,3.0,88,0.00,,,0.00,VWS V14.01,2014-02-08 10:38:00,
2014-02-08 05:43:00,2.7,0.0,30.30,NE,49,2.0,3.0,88,0.00,,,0.00,VWS V14.01,2014-02-08 10:43:00,
2014-02-08 05:48:00,2.7,0.0,30.30,NE,49,2.0,3.0,88,0.00,,,0.00,VWS V14.01,2014-02-08 10:48:00,
2014-02-08 05:53:00,2.7,0.0,30.30,NE,49,3.0,3.0,88,0.00,,,0.00,VWS V14.01,2014-02-08 10:53:00,
2014-02-08 05:58:00,2.6,0.1,30.30,NE,49,2.0,4.0,89,0.00,,,0.00,VWS V14.01,2014-02-08 10:58:00,
2014-02-08 06:03:00,2.7,0.2,30.30,NE,49,2.0,3.0,89,0.00,,,0.00,VWS V14.01,2014-02-08 11:03:00,
2014-02-08 06:08:00,2.7,0.2,30.30,NE,53,1.0,3.0,89,0.00,,,0.00,VWS V14.01,2014-02-08 11:08:00,
2014-02-08 06:13:00,2.3,-0.4,30.30,NE,53,3.0,3.0,88,0.00,,,0.00,VWS V14.01,2014-02-08 11:13:00,
2014-02-08 06:19:00,2.1,-0.6,30.31,NE,53,2.0,3.0,88,0.00,,,0.00,VWS V14.01,2014-02-08 11:19:00,
2014-02-08 06:24:00,2.2,-0.5,30.30,NE,53,3.0,3.0,88,0.00,,,0.00,VWS V14.01,2014-02-08 11:24:00,
2014-02-08 06:29:00,2.2,-0.3,30.31,NE,53,2.0,3.0,89,0.00,,,0.00,VWS V14.01,2014-02-08 11:29:00,
2014-02-08 06:34:00,2.0,-0.5,30.31,NE,53,2.0,3.0,89,0.00,,,0.00,VWS V14.01,2014-02-08 11:34:00,
2014-02-08 06:39:00,1.9,-0.8,30.31,NE,53,1.0,3.0,88,0.00,,,0.00,VWS V14.01,2014-02-08 11:39:00,
2014-02-08 06:44:00,1.9,-0.6,30.31,NE,53,1.0,3.0,89,0.00,,,0.00,VWS V14.01,2014-02-08 11:44:00,
2014-02-08 06:49:00,1.8,-0.7,30.31,NE,53,2.0,3.0,89,0.00,,,0.00,VWS V14.01,2014-02-08 11:49:00,
2014-02-08 06:54:00,1.7,-1.0,30.31,NE,53,2.0,3.0,88,0.00,,,0.00,VWS V14.01,2014-02-08 11:54:00,
2014-02-08 06:59:00,1.8,-0.7,30.31,NE,53,1.0,4.0,89,0.00,,,0.00,VWS V14.01,2014-02-08 11:59:00,
2014-02-08 07:04:00,1.8,-0.7,30.31,NE,53,2.0,3.0,89,0.00,,,0.00,VWS V14.01,2014-02-08 12:04:00,
2014-02-08 07:09:00,1.8,-0.7,30.31,NE,53,3.0,3.0,89,0.00,,,0.00,VWS V14.01,2014-02-08 12:09:00,
2014-02-08 07:14:00,1.7,-1.0,30.31,NE,51,2.0,4.0,88,0.00,,,0.00,VWS V14.01,2014-02-08 12:14:00,
2014-02-08 07:19:00,1.4,-1.3,30.31,NE,51,2.0,4.0,88,0.00,,,0.00,VWS V14.01,2014-02-08 12:19:00,
2014-02-08 07:24:00,1.4,-1.3,30.31,NE,51,2.0,4.0,88,0.00,,,0.00,VWS V14.01,2014-02-08 12:24:00,
2014-02-08 07:29:00,1.5,-1.2,30.31,NE,51,3.0,4.0,88,0.00,,,0.00,VWS V14.01,2014-02-08 12:29:00,
2014-02-08 07:34:00,1.5,-1.2,30.31,NE,51,1.0,3.0,88,0.00,,,0.00,VWS V14.01,2014-02-08 12:34:00,
2014-02-08 07:40:00,1.7,-1.0,30.31,NE,51,2.0,3.0,88,0.00,,,0.00,VWS V14.01,2014-02-08 12:40:00,
2014-02-08 07:45:00,1.7,-1.0,30.31,NE,51,2.0,3.0,88,0.00,,,0.00,VWS V14.01,2014-02-08 12:45:00,
2014-02-08 07:50:00,1.8,-0.9,30.31,NE,51,1.0,3.0,88,0.00,,,0.00,VWS V14.01,2014-02-08 12:50:00,
2014-02-08 07:55:00,1.8,-0.7,30.32,NE,51,0.0,3.0,89,0.00,,,0.00,VWS V14.01,2014-02-08 12:55:00,
2014-02-08 08:00:00,1.8,-0.9,30.32,NE,51,0.0,3.0,88,0.00,,,0.00,VWS V14.01,2014-02-08 13:00:00,
2014-02-08 08:05:00,1.8,-0.9,30.32,NE,51,0.0,2.0,88,0.00,,,0.00,VWS V14.01,2014-02-08 13:05:00,
2014-02-08 08:10:00,2.2,-0.3,30.31,NE,51,0.0,2.0,89,0.00,,,0.00,VWS V14.01,2014-02-08 13:10:00,
2014-02-08 08:15:00,3.0,0.5,30.31,NE,51,0.0,2.0,89,0.00,,,0.00,VWS V14.01,2014-02-08 13:15:00,
2014-02-08 08:20:00,3.8,1.5,30.32,NE,51,0.0,2.0,90,0.00,,,0.00,VWS V14.01,2014-02-08 13:20:00,
2014-02-08 08:25:00,4.8,2.3,30.31,NE,51,0.0,2.0,89,0.00,,,0.00,VWS V14.01,2014-02-08 13:25:00,
2014-02-08 08:30:00,5.7,3.2,30.31,NE,51,1.0,1.0,89,0.00,,,0.00,VWS V14.01,2014-02-08 13:30:00,
2014-02-08 08:35:00,6.9,4.3,30.31,NE,51,0.0,1.0,89,0.00,,,0.00,VWS V14.01,2014-02-08 13:35:00,
2014-02-08 08:40:00,8.0,5.2,30.32,NE,51,0.0,1.0,88,0.00,,,0.00,VWS V14.01,2014-02-08 13:40:00,
2014-02-08 08:45:00,9.0,5.9,30.32,NE,51,0.0,1.0,87,0.00,,,0.00,VWS V14.01,2014-02-08 13:45:00,
2014-02-08 08:50:00,10.1,6.8,30.32,NE,51,0.0,1.0,86,0.00,,,0.00,VWS V14.01,2014-02-08 13:50:00,
2014-02-08 08:55:00,11.1,7.0,30.32,NE,51,0.0,1.0,83,0.00,,,0.00,VWS V14.01,2014-02-08 13:55:00,
2014-02-08 09:01:00,12.1,7.1,30.32,SW,230,1.0,1.0,80,0.00,,,0.00,VWS V14.01,2014-02-08 14:01:00,
2014-02-08 09:06:00,13.3,7.7,30.32,SW,227,3.0,4.0,78,0.00,,,0.00,VWS V14.01,2014-02-08 14:06:00,
2014-02-08 09:11:00,14.3,7.8,30.32,SW,227,0.0,4.0,75,0.00,,,0.00,VWS V14.01,2014-02-08 14:11:00,
2014-02-08 09:16:00,15.0,8.2,30.32,SW,227,2.0,4.0,74,0.00,,,0.00,VWS V14.01,2014-02-08 14:16:00,
2014-02-08 09:21:00,16.0,8.9,30.32,SW,227,0.0,4.0,73,0.00,,,0.00,VWS V14.01,2014-02-08 14:21:00,
2014-02-08 09:26:00,16.7,8.9,30.32,SW,227,2.0,4.0,71,0.00,,,0.00,VWS V14.01,2014-02-08 14:26:00,
2014-02-08 09:31:00,17.3,8.9,30.32,SW,216,2.0,3.0,69,0.00,,,0.00,VWS V14.01,2014-02-08 14:31:00,
2014-02-08 09:36:00,17.8,8.7,30.32,SW,215,1.0,3.0,67,0.00,,,0.00,VWS V14.01,2014-02-08 14:36:00,
2014-02-08 09:41:00,18.7,8.2,30.32,South,171,0.0,4.0,63,0.00,,,0.00,VWS V14.01,2014-02-08 14:41:00,
2014-02-08 09:46:00,19.4,7.4,30.32,NW,304,0.0,4.0,59,0.00,,,0.00,VWS V14.01,2014-02-08 14:46:00,
2014-02-08 09:51:00,19.9,7.9,30.32,WSW,252,0.0,4.0,59,0.00,,,0.00,VWS V14.01,2014-02-08 14:51:00,
2014-02-08 09:56:00,20.4,6.8,30.32,SSW,202,2.0,5.0,55,0.00,,,0.00,VWS V14.01,2014-02-08 14:56:00,
2014-02-08 10:01:00,20.6,6.2,30.32,NW,323,2.0,5.0,53,0.00,,,0.00,VWS V14.01,2014-02-08 15:01:00,
2014-02-08 10:06:00,20.8,6.0,30.32,SW,228,5.0,6.0,52,0.00,,,0.00,VWS V14.01,2014-02-08 15:06:00,
2014-02-08 10:11:00,21.0,6.6,30.32,West,267,1.0,6.0,53,0.00,,,0.00,VWS V14.01,2014-02-08 15:11:00,
2014-02-08 10:16:00,21.2,5.9,30.32,SW,216,7.0,7.0,51,0.00,,,0.00,VWS V14.01,2014-02-08 15:16:00,
2014-02-08 10:22:00,21.4,6.5,30.32,SW,234,2.0,7.0,52,0.00,,,0.00,VWS V14.01,2014-02-08 15:22:00,
2014-02-08 10:27:00,22.0,7.5,30.32,SSE,158,2.0,7.0,53,0.00,,,0.00,VWS V14.01,2014-02-08 15:27:00,
2014-02-08 10:32:00,22.6,6.8,30.31,SSE,157,2.0,4.0,50,0.00,,,0.00,VWS V14.01,2014-02-08 15:32:00,
2014-02-08 10:37:00,22.9,6.6,30.30,NNE,15,3.0,8.0,49,0.00,,,0.00,VWS V14.01,2014-02-08 15:37:00,
2014-02-08 10:42:00,22.7,5.5,30.30,South,177,6.0,8.0,47,0.00,,,0.00,VWS V14.01,2014-02-08 15:42:00,
2014-02-08 10:47:00,22.8,5.6,30.30,SW,227,2.0,8.0,47,0.00,,,0.00,VWS V14.01,2014-02-08 15:47:00,
2014-02-08 10:52:00,23.0,6.2,30.30,West,259,0.0,8.0,48,0.00,,,0.00,VWS V14.01,2014-02-08 15:52:00,
2014-02-08 10:57:00,23.3,6.1,30.29,SSE,159,0.0,8.0,47,0.00,,,0.00,VWS V14.01,2014-02-08 15:57:00,
2014-02-08 11:02:00,23.1,4.9,30.29,SSW,204,0.0,6.0,45,0.00,,,0.00,VWS V14.01,2014-02-08 16:02:00,
2014-02-08 11:07:00,23.5,6.2,30.29,SSE,167,1.0,6.0,47,0.00,,,0.00,VWS V14.01,2014-02-08 16:07:00,
2014-02-08 11:12:00,24.2,5.9,30.29,West,265,3.0,6.0,45,0.00,,,0.00,VWS V14.01,2014-02-08 16:12:00,
2014-02-08 11:17:00,24.8,6.5,30.29,West,275,0.0,6.0,45,0.00,,,0.00,VWS V14.01,2014-02-08 16:17:00,
2014-02-08 11:22:00,25.4,6.5,30.28,South,173,0.0,6.0,44,0.00,,,0.00,VWS V14.01,2014-02-08 16:22:00,
2014-02-08 11:27:00,25.9,6.0,30.28,WSW,237,1.0,6.0,42,0.00,,,0.00,VWS V14.01,2014-02-08 16:27:00,
2014-02-08 11:32:00,26.1,6.7,30.28,ENE,65,1.0,4.0,43,0.00,,,0.00,VWS V14.01,2014-02-08 16:32:00,
2014-02-08 11:38:00,25.9,6.0,30.27,South,174,1.0,5.0,42,0.00,,,0.00,VWS V14.01,2014-02-08 16:38:00,
2014-02-08 11:43:00,26.0,6.1,30.27,West,273,0.0,5.0,42,0.01,,,0.01,VWS V14.01,2014-02-08 16:43:00,
2014-02-08 11:48:00,25.5,6.6,30.26,NW,324,3.0,8.0,44,0.01,,,0.01,VWS V14.01,2014-02-08 16:48:00,
2014-02-08 11:53:00,25.6,6.2,30.26,NW,318,0.0,8.0,43,0.01,,,0.01,VWS V14.01,2014-02-08 16:53:00,
2014-02-08 11:58:00,26.0,7.1,30.25,NNE,15,0.0,8.0,44,0.01,,,0.01,VWS V14.01,2014-02-08 16:58:00,
2014-02-08 12:03:00,26.2,6.8,30.24,ENE,66,0.0,4.0,43,0.01,,,0.01,VWS V14.01,2014-02-08 17:03:00,
2014-02-08 12:08:00,26.4,5.9,30.24,NE,44,0.0,5.0,41,0.01,,,0.01,VWS V14.01,2014-02-08 17:08:00,
2014-02-08 12:13:00,26.2,4.1,30.23,ENE,78,1.0,5.0,38,0.01,,,0.01,VWS V14.01,2014-02-08 17:13:00,
2014-02-08 12:18:00,26.3,5.3,30.23,SE,130,1.0,5.0,40,0.01,,,0.01,VWS V14.01,2014-02-08 17:18:00,
2014-02-08 12:23:00,26.6,5.0,30.23,East,97,0.0,5.0,39,0.01,,,0.01,VWS V14.01,2014-02-08 17:23:00,
2014-02-08 12:28:00,27.1,4.9,30.23,SW,217,2.0,7.0,38,0.01,,,0.01,VWS V14.01,2014-02-08 17:28:00,
2014-02-08 12:33:00,27.4,6.3,30.23,SW,217,0.0,3.0,40,0.01,,,0.01,VWS V14.01,2014-02-08 17:33:00,
2014-02-08 12:38:00,27.8,4.9,30.23,NNW,343,1.0,5.0,37,0.01,,,0.01,VWS V14.01,2014-02-08 17:38:00,
2014-02-08 12:43:00,28.0,5.7,30.24,South,176,2.0,6.0,38,0.01,,,0.01,VWS V14.01,2014-02-08 17:43:00,
2014-02-08 12:48:00,28.3,6.5,30.24,WSW,246,2.0,6.0,39,0.01,,,0.01,VWS V14.01,2014-02-08 17:48:00,
2014-02-08 12:53:00,28.0,4.5,30.24,SW,215,4.0,6.0,36,0.01,,,0.01,VWS V14.01,2014-02-08 17:53:00,
2014-02-08 12:59:00,27.6,4.8,30.23,SSW,213,2.0,6.0,37,0.02,,,0.02,VWS V14.01,2014-02-08 17:59:00,
2014-02-08 13:04:00,27.6,4.8,30.23,SSE,162,2.0,5.0,37,0.01,,,0.02,VWS V14.01,2014-02-08 18:04:00,
2014-02-08 13:09:00,27.7,5.4,30.23,SSW,212,2.0,5.0,38,0.01,,,0.02,VWS V14.01,2014-02-08 18:09:00,
2014-02-08 13:14:00,27.9,5.0,30.22,WNW,290,2.0,6.0,37,0.01,,,0.02,VWS V14.01,2014-02-08 18:14:00,
2014-02-08 13:19:00,28.3,5.4,30.22,WSW,248,0.0,6.0,37,0.01,,,0.02,VWS V14.01,2014-02-08 18:19:00,
2014-02-08 13:24:00,28.6,3.8,30.23,NE,56,1.0,6.0,34,0.01,,,0.02,VWS V14.01,2014-02-08 18:24:00,
2014-02-08 13:29:00,28.7,3.9,30.23,SSE,163,4.0,6.0,34,0.01,,,0.02,VWS V14.01,2014-02-08 18:29:00,
2014-02-08 13:34:00,28.9,5.9,30.23,SW,228,1.0,3.0,37,0.02,,,0.03,VWS V14.01,2014-02-08 18:34:00,
2014-02-08 13:39:00,29.4,5.1,30.23,SSW,194,3.0,6.0,35,0.02,,,0.03,VWS V14.01,2014-02-08 18:39:00,
2014-02-08 13:44:00,29.0,4.8,30.22,WSW,243,1.0,6.0,35,0.02,,,0.03,VWS V14.01,2014-02-08 18:44:00,
2014-02-08 13:49:00,28.8,5.2,30.22,SSW,204,6.0,6.0,36,0.02,,,0.03,VWS V14.01,2014-02-08 18:49:00,
2014-02-08 13:54:00,28.8,7.5,30.21,SSW,207,0.0,6.0,40,0.02,,,0.03,VWS V14.01,2014-02-08 18:54:00,
2014-02-08 13:59:00,28.9,5.3,30.21,SW,215,0.0,7.0,36,0.02,,,0.03,VWS V14.01,2014-02-08 18:59:00,
2014-02-08 14:04:00,29.0,5.4,30.21,SSW,199,2.0,4.0,36,0.01,,,0.03,VWS V14.01,2014-02-08 19:04:00,
2014-02-08 14:09:00,28.8,5.2,30.21,SSE,164,2.0,5.0,36,0.01,,,0.03,VWS V14.01,2014-02-08 19:09:00,
2014-02-08 14:15:00,28.7,5.7,30.20,SW,218,3.0,5.0,37,0.02,,,0.04,VWS V14.01,2014-02-08 19:15:00,
2014-02-08 14:19:00,28.8,5.8,30.19,SW,225,3.0,6.0,37,0.02,,,0.04,VWS V14.01,2014-02-08 19:19:00,
2014-02-08 14:24:00,28.9,5.9,30.19,SW,216,0.0,6.0,37,0.02,,,0.04,VWS V14.01,2014-02-08 19:24:00,
2014-02-08 14:29:00,28.9,7.1,30.19,NNE,26,1.0,6.0,39,0.02,,,0.04,VWS V14.01,2014-02-08 19:29:00,
2014-02-08 14:34:00,29.0,7.7,30.19,SSW,205,4.0,6.0,40,0.02,,,0.04,VWS V14.01,2014-02-08 19:34:00,
2014-02-08 14:39:00,29.0,5.4,30.19,NNW,329,3.0,7.0,36,0.02,,,0.04,VWS V14.01,2014-02-08 19:39:00,
2014-02-08 14:44:00,28.7,5.7,30.19,SW,214,3.0,7.0,37,0.02,,,0.04,VWS V14.01,2014-02-08 19:44:00,
2014-02-08 14:50:00,28.8,5.8,30.19,SSW,208,2.0,7.0,37,0.02,,,0.04,VWS V14.01,2014-02-08 19:50:00,
2014-02-08 14:55:00,28.9,5.9,30.19,SSW,211,3.0,7.0,37,0.02,,,0.04,VWS V14.01,2014-02-08 19:55:00,
2014-02-08 15:00:00,28.8,5.8,30.19,SSW,197,2.0,7.0,37,0.03,,,0.05,VWS V14.01,2014-02-08 20:00:00,
2014-02-08 15:05:00,28.7,5.7,30.19,South,182,1.0,5.0,37,0.02,,,0.05,VWS V14.01,2014-02-08 20:05:00,
2014-02-08 15:10:00,28.8,7.0,30.20,WSW,250,1.0,7.0,39,0.02,,,0.05,VWS V14.01,2014-02-08 20:10:00,
2014-02-08 15:15:00,29.2,7.3,30.20,SW,234,2.0,7.0,39,0.02,,,0.05,VWS V14.01,2014-02-08 20:15:00,
2014-02-08 15:20:00,29.3,5.7,30.21,SW,225,0.0,7.0,36,0.02,,,0.05,VWS V14.01,2014-02-08 20:20:00,
2014-02-08 15:25:00,29.4,6.9,30.21,SSW,212,1.0,7.0,38,0.02,,,0.05,VWS V14.01,2014-02-08 20:25:00,
2014-02-08 15:30:00,29.5,5.2,30.21,SW,223,0.0,1.0,35,0.01,,,0.05,VWS V14.01,2014-02-08 20:30:00,
2014-02-08 15:35:00,29.1,6.1,30.21,SW,223,1.0,1.0,37,0.01,,,0.05,VWS V14.01,2014-02-08 20:35:00,
2014-02-08 15:40:00,29.0,6.0,30.21,West,266,0.0,4.0,37,0.01,,,0.05,VWS V14.01,2014-02-08 20:40:00,
2014-02-08 15:45:00,29.0,6.6,30.21,SW,218,2.0,4.0,38,0.01,,,0.05,VWS V14.01,2014-02-08 20:45:00,
2014-02-08 15:50:00,28.9,5.9,30.21,SW,227,3.0,4.0,37,0.01,,,0.05,VWS V14.01,2014-02-08 20:50:00,
2014-02-08 15:53:00,28.9,5.9,30.21,SW,217,2.0,4.0,37,0.01,,,0.05,VWS V14.01,2014-02-08 20:53:00,
2014-02-08 15:58:00,28.7,5.7,30.22,WSW,244,0.0,7.0,37,0.01,,,0.05,VWS V14.01,2014-02-08 20:58:00,
2014-02-08 16:03:00,28.5,5.6,30.22,SSW,213,1.0,4.0,37,0.00,,,0.05,VWS V14.01,2014-02-08 21:03:00,
2014-02-08 16:08:00,28.4,5.5,30.22,SSW,204,0.0,5.0,37,0.00,,,0.05,VWS V14.01,2014-02-08 21:08:00,
2014-02-08 16:13:00,28.2,5.9,30.22,West,259,0.0,5.0,38,0.00,,,0.05,VWS V14.01,2014-02-08 21:13:00,
2014-02-08 16:18:00,28.0,5.7,30.21,SSW,212,1.0,5.0,38,0.00,,,0.05,VWS V14.01,2014-02-08 21:18:00,
2014-02-08 16:24:00,27.8,6.1,30.22,SSE,163,4.0,7.0,39,0.00,,,0.05,VWS V14.01,2014-02-08 21:24:00,
2014-02-08 16:29:00,27.5,7.9,30.21,WSW,237,1.0,7.0,43,0.00,,,0.05,VWS V14.01,2014-02-08 21:29:00,
2014-02-08 16:34:00,27.3,5.6,30.21,SW,233,0.0,4.0,39,0.00,,,0.05,VWS V14.01,2014-02-08 21:34:00,
2014-02-08 16:39:00,27.1,5.4,30.21,SW,215,4.0,6.0,39,0.00,,,0.05,VWS V14.01,2014-02-08 21:39:00,
2014-02-08 16:44:00,27.0,5.9,30.21,SW,231,1.0,6.0,40,0.00,,,0.05,VWS V14.01,2014-02-08 21:44:00,
2014-02-08 16:49:00,26.8,6.3,30.21,SSW,206,0.0,7.0,41,0.00,,,0.05,VWS V14.01,2014-02-08 21:49:00,
2014-02-08 16:54:00,26.7,6.7,30.21,SSW,207,2.0,7.0,42,0.00,,,0.05,VWS V14.01,2014-02-08 21:54:00,
2014-02-08 16:59:00,26.5,6.0,30.21,SSW,196,0.0,7.0,41,0.00,,,0.05,VWS V14.01,2014-02-08 21:59:00,
2014-02-08 17:04:00,26.3,5.8,30.20,WSW,256,0.0,5.0,41,0.00,,,0.05,VWS V14.01,2014-02-08 22:04:00,
2014-02-08 17:09:00,26.1,6.7,30.20,SW,227,0.0,5.0,43,0.00,,,0.05,VWS V14.01,2014-02-08 22:09:00,
2014-02-08 17:14:00,25.8,7.9,30.20,SW,227,0.0,5.0,46,0.00,,,0.05,VWS V14.01,2014-02-08 22:14:00,
2014-02-08 17:19:00,25.6,7.7,30.20,SW,227,0.0,5.0,46,0.00,,,0.05,VWS V14.01,2014-02-08 22:19:00,
2014-02-08 17:24:00,25.4,6.0,30.20,SW,227,0.0,5.0,43,0.00,,,0.05,VWS V14.01,2014-02-08 22:24:00,
2014-02-08 17:29:00,25.2,8.7,30.20,SW,227,0.0,5.0,49,0.00,,,0.05,VWS V14.01,2014-02-08 22:29:00,
2014-02-08 17:34:00,24.9,8.9,30.20,SW,227,0.0,1.0,50,0.00,,,0.05,VWS V14.01,2014-02-08 22:34:00,
2014-02-08 17:39:00,24.7,8.3,30.20,SW,227,0.0,1.0,49,0.00,,,0.05,VWS V14.01,2014-02-08 22:39:00,
2014-02-08 17:45:00,24.4,9.7,30.20,SW,227,0.0,1.0,53,0.00,,,0.05,VWS V14.01,2014-02-08 22:45:00,
2014-02-08 17:50:00,24.2,9.1,30.19,SW,227,0.0,1.0,52,0.00,,,0.05,VWS V14.01,2014-02-08 22:50:00,
2014-02-08 17:55:00,24.1,7.3,30.19,SW,227,0.0,1.0,48,0.00,,,0.05,VWS V14.01,2014-02-08 22:55:00,
2014-02-08 18:00:00,24.1,7.7,30.19,SW,227,0.0,1.0,49,0.00,,,0.05,VWS V14.01,2014-02-08 23:00:00,
2014-02-08 18:05:00,24.0,8.9,30.19,SW,227,0.0,0.0,52,0.00,,,0.05,VWS V14.01,2014-02-08 23:05:00,
2014-02-08 18:10:00,23.9,8.4,30.19,SW,227,0.0,0.0,51,0.00,,,0.05,VWS V14.01,2014-02-08 23:10:00,
2014-02-08 18:15:00,23.8,9.2,30.19,SW,227,0.0,0.0,53,0.00,,,0.05,VWS V14.01,2014-02-08 23:15:00,
2014-02-08 18:20:00,23.6,9.4,30.19,SW,227,0.0,0.0,54,0.00,,,0.05,VWS V14.01,2014-02-08 23:20:00,
2014-02-08 18:25:00,23.5,9.7,30.18,SW,227,0.0,0.0,55,0.00,,,0.05,VWS V14.01,2014-02-08 23:25:00,
2014-02-08 18:30:00,23.3,10.7,30.18,SW,227,0.0,0.0,58,0.00,,,0.05,VWS V14.01,2014-02-08 23:30:00,
2014-02-08 18:35:00,23.0,10.8,30.18,SW,227,0.0,0.0,59,0.00,,,0.05,VWS V14.01,2014-02-08 23:35:00,
2014-02-08 18:40:00,22.7,11.3,30.18,SW,227,0.0,0.0,61,0.00,,,0.05,VWS V14.01,2014-02-08 23:40:00,
2014-02-08 18:45:00,22.3,10.2,30.18,SW,227,0.0,0.0,59,0.00,,,0.05,VWS V14.01,2014-02-08 23:45:00,
2014-02-08 18:50:00,21.9,11.2,30.17,SW,227,0.0,0.0,63,0.00,,,0.05,VWS V14.01,2014-02-08 23:50:00,
2014-02-08 18:55:00,21.6,11.0,30.17,SW,227,0.0,0.0,63,0.00,,,0.05,VWS V14.01,2014-02-08 23:55:00,
2014-02-08 19:00:00,21.3,11.7,30.17,SW,227,0.0,0.0,66,0.00,,,0.05,VWS V14.01,2014-02-09 00:00:00,
2014-02-08 19:06:00,20.9,11.3,30.17,SW,227,0.0,0.0,66,0.00,,,0.05,VWS V14.01,2014-02-09 00:06:00,
2014-02-08 19:11:00,20.6,11.1,30.17,SW,227,0.0,0.0,66,0.00,,,0.05,VWS V14.01,2014-02-09 00:11:00,
2014-02-08 19:16:00,20.4,10.9,30.17,SW,227,0.0,0.0,66,0.00,,,0.05,VWS V14.01,2014-02-09 00:16:00,
2014-02-08 19:21:00,20.1,11.2,30.17,SW,227,0.0,0.0,68,0.00,,,0.05,VWS V14.01,2014-02-09 00:21:00,
2014-02-08 19:26:00,19.8,11.3,30.17,SW,227,0.0,1.0,69,0.00,,,0.05,VWS V14.01,2014-02-09 00:26:00,
2014-02-08 19:31:00,19.6,10.4,30.17,SW,227,0.0,0.0,67,0.00,,,0.05,VWS V14.01,2014-02-09 00:31:00,
2014-02-08 19:36:00,19.3,10.8,30.17,SW,227,0.0,0.0,69,0.00,,,0.05,VWS V14.01,2014-02-09 00:36:00,
2014-02-08 19:41:00,19.0,10.8,30.17,SW,227,1.0,1.0,70,0.00,,,0.05,VWS V14.01,2014-02-09 00:41:00,
2014-02-08 19:46:00,18.6,11.1,30.17,SW,227,0.0,2.0,72,0.00,,,0.05,VWS V14.01,2014-02-09 00:46:00,
2014-02-08 19:51:00,18.4,11.2,30.17,SW,227,0.0,2.0,73,0.00,,,0.05,VWS V14.01,2014-02-09 00:51:00,
2014-02-08 19:56:00,18.2,11.3,30.17,SW,227,0.0,2.0,74,0.00,,,0.05,VWS V14.01,2014-02-09 00:56:00,
2014-02-08 20:01:00,17.9,11.3,30.17,SW,227,0.0,1.0,75,0.00,,,0.05,VWS V14.01,2014-02-09 01:01:00,
2014-02-08 20:06:00,17.6,11.0,30.16,SW,227,0.0,1.0,75,0.00,,,0.05,VWS V14.01,2014-02-09 01:06:00,
2014-02-08 20:11:00,17.3,11.1,30.16,SW,227,1.0,2.0,76,0.00,,,0.05,VWS V14.01,2014-02-09 01:11:00,
2014-02-08 20:16:00,17.0,11.1,30.16,SW,227,0.0,2.0,77,0.00,,,0.05,VWS V14.01,2014-02-09 01:16:00,
2014-02-08 20:21:00,16.7,11.1,30.16,SW,227,0.0,2.0,78,0.00,,,0.05,VWS V14.01,2014-02-09 01:21:00,
2014-02-08 20:27:00,16.3,10.7,30.17,SW,227,0.0,2.0,78,0.00,,,0.05,VWS V14.01,2014-02-09 01:27:00,
2014-02-08 20:32:00,16.1,10.8,30.16,SW,227,0.0,1.0,79,0.00,,,0.05,VWS V14.01,2014-02-09 01:32:00,
2014-02-08 20:37:00,15.9,10.3,30.16,SW,227,0.0,2.0,78,0.00,,,0.05,VWS V14.01,2014-02-09 01:37:00,
2014-02-08 20:42:00,15.7,10.4,30.16,SW,227,0.0,2.0,79,0.00,,,0.05,VWS V14.01,2014-02-09 01:42:00,
2014-02-08 20:47:00,15.4,10.4,30.16,SW,227,0.0,2.0,80,0.00,,,0.05,VWS V14.01,2014-02-09 01:47:00,
2014-02-08 20:52:00,15.2,10.4,30.16,SW,227,1.0,2.0,81,0.00,,,0.05,VWS V14.01,2014-02-09 01:52:00,
2014-02-08 20:57:00,15.0,10.2,30.16,SW,227,0.0,2.0,81,0.00,,,0.05,VWS V14.01,2014-02-09 01:57:00,
2014-02-08 21:02:00,14.8,10.0,30.15,SW,227,1.0,2.0,81,0.00,,,0.05,VWS V14.01,2014-02-09 02:02:00,
2014-02-08 21:07:00,14.6,9.8,30.15,SW,227,0.0,2.0,81,0.00,,,0.05,VWS V14.01,2014-02-09 02:07:00,
2014-02-08 21:12:00,14.5,9.7,30.15,SW,227,0.0,3.0,81,0.00,,,0.05,VWS V14.01,2014-02-09 02:12:00,
2014-02-08 21:17:00,14.3,9.8,30.15,SW,227,2.0,3.0,82,0.00,,,0.05,VWS V14.01,2014-02-09 02:17:00,
2014-02-08 21:22:00,14.3,9.6,30.15,SW,227,1.0,3.0,81,0.00,,,0.05,VWS V14.01,2014-02-09 02:22:00,
2014-02-08 21:27:00,14.3,9.6,30.15,SW,227,2.0,3.0,81,0.00,,,0.05,VWS V14.01,2014-02-09 02:27:00,
2014-02-08 21:32:00,14.2,9.7,30.15,SW,227,1.0,2.0,82,0.00,,,0.05,VWS V14.01,2014-02-09 02:32:00,
2014-02-08 21:37:00,14.2,9.7,30.15,SW,227,1.0,2.0,82,0.00,,,0.05,VWS V14.01,2014-02-09 02:37:00,
2014-02-08 21:42:00,14.2,9.7,30.15,SW,227,1.0,2.0,82,0.00,,,0.05,VWS V14.01,2014-02-09 02:42:00,
2014-02-08 21:48:00,14.2,9.7,30.15,SW,227,2.0,3.0,82,0.00,,,0.05,VWS V14.01,2014-02-09 02:48:00,
2014-02-08 21:53:00,14.1,9.9,30.15,SW,227,2.0,3.0,83,0.00,,,0.05,VWS V14.01,2014-02-09 02:53:00,
2014-02-08 21:58:00,14.1,9.9,30.15,SW,227,2.0,3.0,83,0.00,,,0.05,VWS V14.01,2014-02-09 02:58:00,
2014-02-08 22:03:00,14.1,9.9,30.15,SW,233,2.0,2.0,83,0.00,,,0.05,VWS V14.01,2014-02-09 03:03:00,
2014-02-08 22:08:00,14.2,9.7,30.15,SW,233,1.0,2.0,82,0.00,,,0.05,VWS V14.01,2014-02-09 03:08:00,
2014-02-08 22:13:00,14.3,9.8,30.15,SW,233,0.0,2.0,82,0.00,,,0.05,VWS V14.01,2014-02-09 03:13:00,
2014-02-08 22:18:00,14.4,9.9,30.15,SW,233,0.0,3.0,82,0.00,,,0.05,VWS V14.01,2014-02-09 03:18:00,
2014-02-08 22:23:00,14.4,9.9,30.15,SW,233,0.0,3.0,82,0.00,,,0.05,VWS V14.01,2014-02-09 03:23:00,
2014-02-08 22:28:00,14.4,9.9,30.15,SW,233,0.0,3.0,82,0.00,,,0.05,VWS V14.01,2014-02-09 03:28:00,
2014-02-08 22:33:00,14.5,10.0,30.15,SW,233,0.0,0.0,82,0.00,,,0.05,VWS V14.01,2014-02-09 03:33:00,
2014-02-08 22:38:00,14.5,10.0,30.15,SW,233,0.0,0.0,82,0.00,,,0.05,VWS V14.01,2014-02-09 03:38:00,
2014-02-08 22:43:00,14.6,9.8,30.14,SW,233,0.0,2.0,81,0.00,,,0.05,VWS V14.01,2014-02-09 03:43:00,
2014-02-08 22:48:00,14.5,9.7,30.14,SW,233,0.0,2.0,81,0.00,,,0.05,VWS V14.01,2014-02-09 03:48:00,
2014-02-08 22:53:00,14.5,10.0,30.14,SW,233,0.0,2.0,82,0.00,,,0.05,VWS V14.01,2014-02-09 03:53:00,
2014-02-08 22:58:00,14.4,9.9,30.14,SW,233,1.0,2.0,82,0.00,,,0.05,VWS V14.01,2014-02-09 03:58:00,
2014-02-08 23:04:00,14.3,9.8,30.14,SW,233,1.0,2.0,82,0.00,,,0.05,VWS V14.01,2014-02-09 04:04:00,
2014-02-08 23:09:00,14.3,9.8,30.14,SW,233,1.0,2.0,82,0.00,,,0.05,VWS V14.01,2014-02-09 04:09:00,
2014-02-08 23:14:00,14.4,9.6,30.14,SW,233,1.0,2.0,81,0.00,,,0.05,VWS V14.01,2014-02-09 04:14:00,
2014-02-08 23:19:00,14.3,9.6,30.14,SW,233,0.0,2.0,81,0.00,,,0.05,VWS V14.01,2014-02-09 04:19:00,
2014-02-08 23:24:00,14.2,9.7,30.14,SW,233,0.0,2.0,82,0.00,,,0.05,VWS V14.01,2014-02-09 04:24:00,
2014-02-08 23:29:00,14.0,9.5,30.14,SW,233,0.0,2.0,82,0.00,,,0.05,VWS V14.01,2014-02-09 04:29:00,
2014-02-08 23:34:00,14.0,9.8,30.14,SW,233,0.0,0.0,83,0.00,,,0.05,VWS V14.01,2014-02-09 04:34:00,
2014-02-08 23:39:00,13.9,9.7,30.13,SW,233,0.0,0.0,83,0.00,,,0.05,VWS V14.01,2014-02-09 04:39:00,
2014-02-08 23:44:00,13.9,9.4,30.13,SW,233,0.0,0.0,82,0.00,,,0.05,VWS V14.01,2014-02-09 04:44:00,
2014-02-08 23:49:00,13.8,9.6,30.13,SW,233,0.0,0.0,83,0.00,,,0.05,VWS V14.01,2014-02-09 04:49:00,
2014-02-08 23:54:00,13.7,9.5,30.13,SW,233,0.0,0.0,83,0.00,,,0.05,VWS V14.01,2014-02-09 04:54:00,
2014-02-08 23:59:00,13.8,9.9,30.13,SW,233,0.0,0.0,84,0.00,,,0.05,VWS V14.01,2014-02-09 04:59:00,